createdAt,value
2019-03-01T00:01:17.060Z,99883.11
2019-03-01T00:04:03.493Z,99886.08
2019-03-01T00:07:38.411Z,99875.55
2019-03-01T00:11:14.324Z,99873.69
2019-03-01T00:14:37.417Z,99874.69
2019-03-01T00:18:08.704Z,99869.14
2019-03-01T00:21:14.050Z,99859.84
2019-03-01T00:24:20.804Z,99860.93
2019-03-01T00:27:10.385Z,99857.58
2019-03-01T00:30:32.326Z,99858.12
2019-03-01T00:34:05.864Z,99853.17
2019-03-01T00:37:02.127Z,99859.29
2019-03-01T00:40:06.851Z,99854.40
2019-03-01T00:43:27.702Z,99854.34
2019-03-01T00:45:59.543Z,99853.53
2019-03-01T00:48:31.371Z,99851.20
2019-03-01T00:51:03.163Z,99848.75
2019-03-01T00:53:35.008Z,99847.70
2019-03-01T00:56:06.824Z,99847.17
2019-03-01T00:58:38.632Z,99836.05
2019-03-01T01:01:10.459Z,99831.11
2019-03-01T01:03:42.291Z,99832.56
2019-03-01T01:06:15.058Z,99832.79
2019-03-01T01:08:46.889Z,99824.98
2019-03-01T01:11:18.741Z,99832.33
2019-03-01T01:13:50.614Z,99822.59
2019-03-01T01:16:22.468Z,99826.84
2019-03-01T01:18:54.286Z,99822.22
2019-03-01T01:21:26.114Z,99826.30
2019-03-01T01:23:57.940Z,99831.70
2019-03-01T01:26:29.779Z,99815.59
2019-03-01T01:29:01.653Z,99811.52
2019-03-01T01:31:33.478Z,99806.56
2019-03-01T01:34:05.300Z,99804.20
2019-03-01T01:36:37.151Z,99805.52
2019-03-01T01:39:10.735Z,99798.48
2019-03-01T01:41:42.579Z,99801.58
2019-03-01T01:44:14.406Z,99798.12
2019-03-01T01:46:46.244Z,99793.77
2019-03-01T01:49:19.050Z,99787.09
2019-03-01T01:51:50.991Z,99787.73
2019-03-01T01:54:22.899Z,99781.30
2019-03-01T01:56:54.709Z,99786.11
2019-03-01T01:59:26.514Z,99784.10
2019-03-01T02:01:58.337Z,99785.73
2019-03-01T02:04:30.192Z,99787.27
2019-03-01T02:07:02.008Z,99774.95
2019-03-01T02:09:34.016Z,99777.80
2019-03-01T02:12:05.862Z,99770.95
2019-03-01T02:14:37.710Z,99779.60
2019-03-01T02:17:09.595Z,99773.57
2019-03-01T02:19:41.414Z,99770.17
2019-03-01T02:22:13.269Z,99773.80
2019-03-01T02:24:45.201Z,99771.31
2019-03-01T02:27:26.218Z,99768.23
2019-03-01T02:29:59.199Z,99767.88
2019-03-01T02:32:50.565Z,99770.09
2019-03-01T02:35:31.310Z,99765.37
2019-03-01T02:38:03.134Z,99764.97
2019-03-01T02:40:39.425Z,99763.28
2019-03-01T02:43:11.226Z,99762.34
2019-03-01T02:45:43.097Z,99757.81
2019-03-01T02:48:14.977Z,99754.17
2019-03-01T02:50:46.787Z,99753.45
2019-03-01T02:53:18.659Z,99747.88
2019-03-01T02:55:50.463Z,99750.69
2019-03-01T02:58:22.302Z,99746.42
2019-03-01T03:00:54.260Z,99738.53
2019-03-01T03:03:26.124Z,99743.80
2019-03-01T03:06:08.689Z,99739.71
2019-03-01T03:08:40.570Z,99738.62
2019-03-01T03:11:12.427Z,99736.99
2019-03-01T03:13:44.313Z,99734.91
2019-03-01T03:16:16.214Z,99727.47
2019-03-01T03:18:48.062Z,99734.36
2019-03-01T03:21:19.917Z,99726.70
2019-03-01T03:23:51.787Z,99738.31
2019-03-01T03:26:23.639Z,99731.73
2019-03-01T03:28:55.495Z,99737.08
2019-03-01T03:31:27.188Z,99735.81
2019-03-01T03:33:59.047Z,99737.85
2019-03-01T03:36:30.950Z,99735.59
2019-03-01T03:39:02.769Z,99731.95
2019-03-01T03:41:34.716Z,99737.76
2019-03-01T03:44:06.580Z,99730.64
2019-03-01T03:46:38.424Z,99733.19
2019-03-01T03:49:10.299Z,99730.96
2019-03-01T03:51:42.176Z,99732.94
2019-03-01T03:54:14.032Z,99724.52
2019-03-01T03:56:45.933Z,99721.97
2019-03-01T03:59:17.752Z,99727.69
2019-03-01T04:01:49.627Z,99721.57
2019-03-01T04:04:21.442Z,99712.28
2019-03-01T04:06:53.313Z,99718.39
2019-03-01T04:09:25.173Z,99721.75
2019-03-01T04:11:57.027Z,99723.64
2019-03-01T04:14:28.990Z,99719.94
2019-03-01T04:17:00.840Z,99719.48
2019-03-01T04:19:32.670Z,99719.47
2019-03-01T04:22:04.575Z,99717.94
2019-03-01T04:24:36.368Z,99714.58
2019-03-01T04:27:08.248Z,99715.07
2019-03-01T04:29:40.158Z,99710.49
2019-03-01T04:32:11.963Z,99712.77
2019-03-01T04:34:43.784Z,99717.08
2019-03-01T04:37:15.698Z,99709.96
2019-03-01T04:39:47.556Z,99710.73
2019-03-01T04:42:19.364Z,99715.94
2019-03-01T04:44:51.243Z,99711.59
2019-03-01T04:47:23.081Z,99715.41
2019-03-01T04:49:54.939Z,99715.72
2019-03-01T04:52:44.690Z,99713.78
2019-03-01T04:55:22.931Z,99721.35
2019-03-01T04:57:54.781Z,99719.34
2019-03-01T05:00:27.858Z,99717.17
2019-03-01T05:03:01.301Z,99723.61
2019-03-01T05:05:33.163Z,99726.37
2019-03-01T05:08:05.089Z,99723.38
2019-03-01T05:10:36.904Z,99724.98
2019-03-01T05:13:08.740Z,99727.47
2019-03-01T05:15:40.552Z,99728.88
2019-03-01T05:18:12.416Z,99726.52
2019-03-01T05:20:44.205Z,99727.16
2019-03-01T05:23:16.041Z,99733.05
2019-03-01T05:25:47.892Z,99731.73
2019-03-01T05:28:19.728Z,99735.13
2019-03-01T05:30:51.603Z,99736.59
2019-03-01T05:33:24.315Z,99734.36
2019-03-01T05:35:56.139Z,99736.91
2019-03-01T05:38:27.968Z,99731.05
2019-03-01T05:40:59.858Z,99730.19
2019-03-01T05:43:31.693Z,99733.81
2019-03-01T05:46:03.618Z,99738.30
2019-03-01T05:48:35.455Z,99735.91
2019-03-01T05:51:07.371Z,99734.27
2019-03-01T05:53:39.254Z,99737.22
2019-03-01T05:56:11.104Z,99738.84
2019-03-01T05:59:07.191Z,99740.39
2019-03-01T06:01:49.821Z,99744.25
2019-03-01T06:04:33.840Z,99738.44
2019-03-01T06:08:04.933Z,99739.76
2019-03-01T06:11:02.615Z,99749.14
2019-03-01T06:14:35.094Z,99752.05
2019-03-01T06:18:00.649Z,99750.13
2019-03-01T06:21:14.875Z,99758.16
2019-03-01T06:24:23.222Z,99761.20
2019-03-01T06:27:57.586Z,99765.73
2019-03-01T06:31:00.835Z,99766.84
2019-03-01T06:34:08.643Z,99768.64
2019-03-01T06:37:18.989Z,99775.35
2019-03-01T06:40:32.413Z,99773.63
2019-03-01T06:44:08.858Z,99773.49
2019-03-01T06:47:28.215Z,99777.84
2019-03-01T06:50:05.539Z,99786.56
2019-03-01T06:52:37.368Z,99779.94
2019-03-01T06:55:32.027Z,99787.33
2019-03-01T06:58:03.833Z,99788.52
2019-03-01T07:00:47.310Z,99789.69
2019-03-01T07:03:13.595Z,99786.28
2019-03-01T07:05:45.536Z,99778.45
2019-03-01T07:08:17.404Z,99783.66
2019-03-01T07:10:49.296Z,99788.42
2019-03-01T07:13:21.296Z,99785.80
2019-03-01T07:15:53.148Z,99790.78
2019-03-01T07:18:25.019Z,99797.89
2019-03-01T07:20:56.910Z,99803.53
2019-03-01T07:23:36.570Z,99811.28
2019-03-01T07:26:02.364Z,99811.28
2019-03-01T07:28:34.183Z,99813.91
2019-03-01T07:31:07.092Z,99819.09
2019-03-01T07:33:38.974Z,99816.09
2019-03-01T07:36:10.795Z,99819.55
2019-03-01T07:38:42.623Z,99821.26
2019-03-01T07:41:14.524Z,99830.70
2019-03-01T07:43:46.378Z,99829.62
2019-03-01T07:46:18.392Z,99830.70
2019-03-01T07:48:50.258Z,99831.70
2019-03-01T07:51:27.020Z,99840.00
2019-03-01T07:53:58.750Z,99842.63
2019-03-01T07:56:30.580Z,99839.00
2019-03-01T07:59:02.459Z,99841.47
2019-03-01T08:01:34.286Z,99849.08
2019-03-01T08:04:06.109Z,99853.30
2019-03-01T08:06:38.043Z,99854.34
2019-03-01T08:09:14.348Z,99857.42
2019-03-01T08:11:46.257Z,99864.91
2019-03-01T08:14:18.114Z,99864.37
2019-03-01T08:16:52.615Z,99868.81
2019-03-01T08:19:23.700Z,99871.44
2019-03-01T08:21:55.577Z,99881.56
2019-03-01T08:24:27.551Z,99884.11
2019-03-01T08:26:59.564Z,99889.00
2019-03-01T08:29:34.046Z,99893.73
2019-03-01T08:32:04.998Z,99895.36
2019-03-01T08:34:36.861Z,99895.04
2019-03-01T08:37:08.733Z,99895.49
2019-03-01T08:39:40.783Z,99901.60
2019-03-01T08:42:12.694Z,99906.67
2019-03-01T08:44:44.520Z,99910.17
2019-03-01T08:47:20.325Z,99919.38
2019-03-01T08:49:49.889Z,99920.20
2019-03-01T08:52:21.754Z,99926.70
2019-03-01T08:54:53.637Z,99938.05
2019-03-01T08:57:26.605Z,99926.99
2019-03-01T08:59:59.243Z,99937.92
2019-03-01T09:02:31.088Z,99936.81
2019-03-01T09:05:05.237Z,99936.81
2019-03-01T09:07:36.535Z,99941.53
2019-03-01T09:10:10.286Z,99941.74
2019-03-01T09:12:42.876Z,99947.78
2019-03-01T09:15:15.696Z,99951.52
2019-03-01T09:17:47.573Z,99956.98
2019-03-01T09:20:19.390Z,99963.64
2019-03-01T09:22:51.278Z,99973.42
2019-03-01T09:25:23.169Z,99971.94
2019-03-01T09:27:55.062Z,99979.09
2019-03-01T09:30:27.060Z,99978.25
2019-03-01T09:32:58.892Z,99982.48
2019-03-01T09:35:43.204Z,99979.77
2019-03-01T09:38:14.748Z,99984.37
2019-03-01T09:40:46.753Z,99987.08
2019-03-01T09:43:18.691Z,99988.05
2019-03-01T09:45:50.559Z,99997.33
2019-03-01T09:48:22.432Z,100001.20
2019-03-01T09:50:54.291Z,100003.78
2019-03-01T09:53:26.383Z,100004.80
2019-03-01T09:56:00.020Z,100011.98
2019-03-01T09:58:32.612Z,100016.64
2019-03-01T10:01:14.573Z,100015.78
2019-03-01T10:03:47.316Z,100019.38
2019-03-01T10:06:19.145Z,100020.33
2019-03-01T10:08:50.996Z,100025.32
2019-03-01T10:11:22.909Z,100028.14
2019-03-01T10:13:54.790Z,100033.13
2019-03-01T10:16:26.665Z,100039.43
2019-03-01T10:18:58.546Z,100040.67
2019-03-01T10:21:30.442Z,100043.48
2019-03-01T10:24:02.325Z,100040.07
2019-03-01T10:26:34.207Z,100041.38
2019-03-01T10:29:06.051Z,100046.64
2019-03-01T10:31:37.952Z,100046.71
2019-03-01T10:34:09.845Z,100057.26
2019-03-01T10:36:41.731Z,100064.23
2019-03-01T10:39:16.349Z,100062.13
2019-03-01T10:41:48.762Z,100067.05
2019-03-01T10:44:20.708Z,100076.42
2019-03-01T10:46:52.571Z,100065.99
2019-03-01T10:49:24.416Z,100079.16
2019-03-01T10:51:56.291Z,100089.14
2019-03-01T10:54:28.183Z,100091.25
2019-03-01T10:57:00.059Z,100087.27
2019-03-01T10:59:33.575Z,100094.70
2019-03-01T11:02:05.436Z,100093.69
2019-03-01T11:04:37.315Z,100099.47
2019-03-01T11:07:09.170Z,100100.22
2019-03-01T11:09:41.047Z,100099.36
2019-03-01T11:12:12.953Z,100112.56
2019-03-01T11:14:44.814Z,100105.40
2019-03-01T11:17:16.627Z,100113.73
2019-03-01T11:19:48.539Z,100115.45
2019-03-01T11:22:20.399Z,100113.91
2019-03-01T11:24:52.303Z,100115.64
2019-03-01T11:27:24.097Z,100115.64
2019-03-01T11:29:55.959Z,100119.39
2019-03-01T11:32:28.782Z,100116.36
2019-03-01T11:35:00.807Z,100117.81
2019-03-01T11:37:33.537Z,100116.54
2019-03-01T11:40:08.658Z,100120.55
2019-03-01T11:42:40.720Z,100120.03
2019-03-01T11:45:12.769Z,100126.08
2019-03-01T11:47:45.600Z,100131.66
2019-03-01T11:50:20.425Z,100127.12
2019-03-01T11:52:52.276Z,100123.19
2019-03-01T11:55:24.361Z,100132.91
2019-03-01T11:57:56.279Z,100135.42
2019-03-01T12:00:28.133Z,100129.45
2019-03-01T12:03:00.080Z,100135.22
2019-03-01T12:05:31.975Z,100136.28
2019-03-01T12:08:03.824Z,100136.33
2019-03-01T12:10:35.657Z,100135.95
2019-03-01T12:13:07.521Z,100134.70
2019-03-01T12:15:39.405Z,100135.42
2019-03-01T12:18:11.281Z,100147.59
2019-03-01T12:20:43.155Z,100145.03
2019-03-01T12:23:15.070Z,100148.45
2019-03-01T12:25:46.890Z,100150.32
2019-03-01T12:28:18.811Z,100157.91
2019-03-01T12:30:51.544Z,100174.58
2019-03-01T12:33:23.425Z,100177.13
2019-03-01T12:35:55.257Z,100187.56
2019-03-01T12:38:27.155Z,100192.53
2019-03-01T12:40:59.082Z,100200.01
2019-03-01T12:43:30.966Z,100202.70
2019-03-01T12:46:02.965Z,100206.84
2019-03-01T12:48:34.844Z,100208.79
2019-03-01T12:51:06.770Z,100210.55
2019-03-01T12:53:38.652Z,100216.82
2019-03-01T12:56:10.526Z,100216.89
2019-03-01T12:58:42.381Z,100218.93
2019-03-01T13:01:14.291Z,100221.62
2019-03-01T13:03:46.116Z,100222.42
2019-03-01T13:06:17.987Z,100225.70
2019-03-01T13:08:51.587Z,100222.60
2019-03-01T13:11:23.458Z,100228.84
2019-03-01T13:13:55.301Z,100226.00
2019-03-01T13:16:27.437Z,100227.02
2019-03-01T13:18:59.333Z,100230.73
2019-03-01T13:21:31.199Z,100230.30
2019-03-01T13:24:03.069Z,100234.53
2019-03-01T13:26:37.678Z,100235.12
2019-03-01T13:29:08.496Z,100230.63
2019-03-01T13:31:40.355Z,100231.05
2019-03-01T13:34:13.864Z,100229.82
2019-03-01T13:36:45.769Z,100234.11
2019-03-01T13:39:17.619Z,100238.41
2019-03-01T13:41:49.410Z,100237.59
2019-03-01T13:44:21.315Z,100241.44
2019-03-01T13:46:53.175Z,100247.84
2019-03-01T13:49:26.799Z,100246.53
2019-03-01T13:51:58.621Z,100238.41
2019-03-01T13:54:30.494Z,100251.13
2019-03-01T13:57:02.524Z,100252.98
2019-03-01T13:59:37.489Z,100257.92
2019-03-01T14:02:08.508Z,100255.72
2019-03-01T14:04:41.358Z,100255.81
2019-03-01T14:07:13.266Z,100252.89
2019-03-01T14:09:45.288Z,100245.92
2019-03-01T14:12:17.122Z,100248.90
2019-03-01T14:14:49.017Z,100250.30
2019-03-01T14:17:21.090Z,100257.06
2019-03-01T14:19:54.496Z,100255.03
2019-03-01T14:22:26.380Z,100250.63
2019-03-01T14:24:58.239Z,100247.23
2019-03-01T14:27:30.428Z,100254.56
2019-03-01T14:30:02.367Z,100250.80
2019-03-01T14:32:34.313Z,100249.11
2019-03-01T14:35:06.412Z,100251.97
2019-03-01T14:37:38.304Z,100255.45
2019-03-01T14:40:12.228Z,100253.34
2019-03-01T14:42:47.463Z,100258.88
2019-03-01T14:45:21.013Z,100265.38
2019-03-01T14:47:53.162Z,100265.28
2019-03-01T14:50:29.957Z,100266.50
2019-03-01T14:53:00.304Z,100276.06
2019-03-01T14:55:39.325Z,100289.02
2019-03-01T14:58:37.331Z,100287.84
2019-03-01T15:01:35.162Z,100291.65
2019-03-01T15:04:07.096Z,100292.09
2019-03-01T15:06:38.935Z,100300.02
2019-03-01T15:09:11.610Z,100294.72
2019-03-01T15:11:44.331Z,100292.60
2019-03-01T15:14:17.156Z,100301.84
2019-03-01T15:16:49.061Z,100304.97
2019-03-01T15:19:20.907Z,100303.42
2019-03-01T15:21:52.941Z,100307.53
2019-03-01T15:24:24.840Z,100305.03
2019-03-01T15:27:00.066Z,100302.41
2019-03-01T15:29:32.199Z,100300.73
2019-03-01T15:32:04.023Z,100302.64
2019-03-01T15:34:35.910Z,100308.03
2019-03-01T15:37:07.823Z,100322.31
2019-03-01T15:39:39.731Z,100322.45
2019-03-01T15:42:14.327Z,100324.33
2019-03-01T15:44:45.193Z,100324.83
2019-03-01T15:47:17.104Z,100325.02
2019-03-01T15:49:51.378Z,100329.09
2019-03-01T15:52:22.540Z,100328.41
2019-03-01T15:54:54.449Z,100333.16
2019-03-01T15:57:26.382Z,100344.35
2019-03-01T15:59:58.270Z,100340.78
2019-03-01T16:02:30.232Z,100349.01
2019-03-01T16:05:02.143Z,100344.07
2019-03-01T16:07:34.082Z,100362.20
2019-03-01T16:10:07.187Z,100363.84
2019-03-01T16:12:39.133Z,100358.80
2019-03-01T16:15:12.858Z,100368.27
2019-03-01T16:17:44.845Z,100368.91
2019-03-01T16:20:16.740Z,100366.37
2019-03-01T16:22:51.022Z,100372.42
2019-03-01T16:25:22.467Z,100376.67
2019-03-01T16:27:55.152Z,100377.73
2019-03-01T16:30:27.123Z,100388.15
2019-03-01T16:32:59.013Z,100388.08
2019-03-01T16:35:30.881Z,100393.31
2019-03-01T16:38:03.246Z,100395.45
2019-03-01T16:40:35.210Z,100401.43
2019-03-01T16:43:07.100Z,100399.86
2019-03-01T16:45:38.963Z,100397.00
2019-03-01T16:48:13.587Z,100402.00
2019-03-01T16:50:45.041Z,100406.17
2019-03-01T16:53:16.922Z,100412.48
2019-03-01T16:55:50.457Z,100417.53
2019-03-01T16:58:24.454Z,100419.58
2019-03-01T17:00:56.124Z,100425.27
2019-03-01T17:03:28.092Z,100426.81
2019-03-01T17:05:59.976Z,100421.59
2019-03-01T17:08:31.892Z,100424.84
2019-03-01T17:11:05.783Z,100423.08
2019-03-01T17:13:37.364Z,100420.66
2019-03-01T17:16:09.250Z,100427.70
2019-03-01T17:18:41.150Z,100423.28
2019-03-01T17:21:15.891Z,100422.94
2019-03-01T17:23:46.515Z,100440.35
2019-03-01T17:26:18.514Z,100436.84
2019-03-01T17:28:50.373Z,100441.29
2019-03-01T17:31:23.161Z,100436.92
2019-03-01T17:33:55.880Z,100434.35
2019-03-01T17:36:27.734Z,100442.70
2019-03-01T17:39:20.138Z,100440.92
2019-03-01T17:41:51.843Z,100441.02
2019-03-01T17:44:24.757Z,100444.47
2019-03-01T17:46:56.650Z,100443.96
2019-03-01T17:49:29.710Z,100444.28
2019-03-01T17:52:02.128Z,100437.04
2019-03-01T17:54:34.093Z,100447.56
2019-03-01T17:57:06.037Z,100445.44
2019-03-01T17:59:37.896Z,100454.55
2019-03-01T18:02:12.084Z,100454.43
2019-03-01T18:04:43.317Z,100453.99
2019-03-01T18:07:15.198Z,100456.98
2019-03-01T18:09:47.172Z,100460.53
2019-03-01T18:12:20.604Z,100457.86
2019-03-01T18:14:52.660Z,100463.98
2019-03-01T18:17:24.549Z,100465.77
2019-03-01T18:19:58.759Z,100470.64
2019-03-01T18:22:30.096Z,100470.31
2019-03-01T18:25:02.128Z,100475.55
2019-03-01T18:27:33.957Z,100479.05
2019-03-01T18:30:16.125Z,100478.23
2019-03-01T18:32:46.295Z,100483.89
2019-03-01T18:35:18.225Z,100476.97
2019-03-01T18:37:51.548Z,100475.67
2019-03-01T18:40:23.681Z,100479.97
2019-03-01T18:42:55.046Z,100475.36
2019-03-01T18:45:26.400Z,100476.67
2019-03-01T18:47:57.689Z,100482.88
2019-03-01T18:50:32.275Z,100482.00
2019-03-01T18:53:04.439Z,100480.59
2019-03-01T18:55:36.266Z,100482.00
2019-03-01T18:58:10.539Z,100493.63
2019-03-01T19:00:42.284Z,100488.05
2019-03-01T19:03:14.686Z,100492.70
2019-03-01T19:05:46.634Z,100492.80
2019-03-01T19:08:18.493Z,100500.65
2019-03-01T19:10:54.201Z,100497.56
2019-03-01T19:13:25.589Z,100506.28
2019-03-01T19:15:57.798Z,100503.53
2019-03-01T19:18:29.631Z,100500.11
2019-03-01T19:21:01.470Z,100502.23
2019-03-01T19:23:33.392Z,100500.54
2019-03-01T19:26:05.215Z,100499.80
2019-03-01T19:28:37.051Z,100502.24
2019-03-01T19:31:08.911Z,100507.48
2019-03-01T19:33:41.726Z,100519.45
2019-03-01T19:36:13.688Z,100515.19
2019-03-01T19:38:46.473Z,100511.70
2019-03-01T19:41:20.048Z,100519.09
2019-03-01T19:43:57.461Z,100517.64
2019-03-01T19:46:26.607Z,100512.28
2019-03-01T19:48:58.603Z,100512.02
2019-03-01T19:51:33.800Z,100510.02
2019-03-01T19:54:04.082Z,100505.34
2019-03-01T19:56:35.961Z,100501.09
2019-03-01T19:59:07.833Z,100496.29
2019-03-01T20:01:39.690Z,100501.10
2019-03-01T20:04:11.555Z,100505.64
2019-03-01T20:06:44.473Z,100508.44
2019-03-01T20:09:16.374Z,100511.00
2019-03-01T20:11:49.289Z,100516.34
2019-03-01T20:14:21.202Z,100517.78
2019-03-01T20:16:54.881Z,100512.59
2019-03-01T20:19:26.711Z,100515.31
2019-03-01T20:21:58.592Z,100514.45
2019-03-01T20:24:30.633Z,100513.25
2019-03-01T20:27:03.074Z,100514.95
2019-03-01T20:29:35.729Z,100510.19
2019-03-01T20:32:07.601Z,100508.41
2019-03-01T20:34:39.497Z,100503.59
2019-03-01T20:37:11.445Z,100491.81
2019-03-01T20:39:43.337Z,100499.60
2019-03-01T20:42:17.763Z,100493.12
2019-03-01T20:44:50.280Z,100493.99
2019-03-01T20:47:23.090Z,100490.55
2019-03-01T20:49:54.994Z,100499.73
2019-03-01T20:52:27.028Z,100502.35
2019-03-01T20:55:00.589Z,100506.66
2019-03-01T20:57:32.789Z,100501.91
2019-03-01T21:00:05.002Z,100498.41
2019-03-01T21:02:36.854Z,100499.23
2019-03-01T21:05:09.778Z,100500.05
2019-03-01T21:07:41.743Z,100505.28
2019-03-01T21:10:21.831Z,100503.86
2019-03-01T21:12:53.789Z,100509.11
2019-03-01T21:15:25.692Z,100504.79
2019-03-01T21:17:58.661Z,100501.30
2019-03-01T21:20:30.779Z,100502.56
2019-03-01T21:23:02.638Z,100507.36
2019-03-01T21:25:35.896Z,100506.85
2019-03-01T21:28:08.240Z,100505.55
2019-03-01T21:30:41.097Z,100504.13
2019-03-01T21:33:12.942Z,100506.70
2019-03-01T21:35:47.881Z,100514.90
2019-03-01T21:38:18.480Z,100513.48
2019-03-01T21:40:50.365Z,100503.40
2019-03-01T21:43:22.281Z,100513.85
2019-03-01T21:45:55.492Z,100507.92
2019-03-01T21:48:27.748Z,100517.13
2019-03-01T21:50:59.594Z,100512.02
2019-03-01T21:53:31.512Z,100510.22
2019-03-01T21:56:04.585Z,100508.47
2019-03-01T21:58:38.587Z,100510.48
2019-03-01T22:01:10.660Z,100516.98
2019-03-01T22:03:42.523Z,100510.92
2019-03-01T22:06:14.398Z,100520.41
2019-03-01T22:08:48.744Z,100518.71
2019-03-01T22:11:20.937Z,100521.33
2019-03-01T22:13:52.960Z,100520.51
2019-03-01T22:16:24.838Z,100519.22
2019-03-01T22:18:58.747Z,100528.85
2019-03-01T22:21:30.315Z,100527.55
2019-03-01T22:24:02.168Z,100522.69
2019-03-01T22:26:34.005Z,100523.12
2019-03-01T22:29:08.815Z,100528.80
2019-03-01T22:31:39.774Z,100534.42
2019-03-01T22:34:11.737Z,100527.88
2019-03-01T22:36:43.564Z,100537.91
2019-03-01T22:39:16.619Z,100531.80
2019-03-01T22:41:48.984Z,100535.66
2019-03-01T22:44:20.862Z,100533.06
2019-03-01T22:46:52.757Z,100530.00
2019-03-01T22:49:24.653Z,100531.31
2019-03-01T22:51:56.538Z,100528.58
2019-03-01T22:54:28.392Z,100526.41
2019-03-01T22:57:00.300Z,100525.05
2019-03-01T22:59:32.159Z,100518.77
2019-03-01T23:02:08.062Z,100516.69
2019-03-01T23:04:40.067Z,100527.55
2019-03-01T23:07:11.931Z,100523.72
2019-03-01T23:09:46.525Z,100525.42
2019-03-01T23:12:17.320Z,100521.48
2019-03-01T23:14:49.171Z,100524.93
2019-03-01T23:17:21.008Z,100528.84
2019-03-01T23:19:52.901Z,100524.48
2019-03-01T23:22:24.847Z,100523.19
2019-03-01T23:24:56.711Z,100526.62
2019-03-01T23:27:31.672Z,100520.12
2019-03-01T23:30:02.138Z,100512.27
2019-03-01T23:32:34.004Z,100514.00
2019-03-01T23:35:05.862Z,100506.59
2019-03-01T23:37:38.841Z,100503.11
2019-03-01T23:40:11.305Z,100507.85
2019-03-01T23:42:43.296Z,100505.67
2019-03-01T23:45:17.431Z,100503.03
2019-03-01T23:47:48.749Z,100497.80
2019-03-01T23:50:20.593Z,100497.31
2019-03-01T23:52:54.916Z,100498.99
2019-03-01T23:55:26.413Z,100495.63
2019-03-01T23:58:06.281Z,100483.42
